Terminal Aerodrome Forecast
Issued by NWS

Home | Current Version | Previous Version | Graphics & Text | Print | Product List | Glossary On
Versions: 1 2 3 4 5 6 7 8 9 10 11 12 13 14 15 16 17 18
000
FTUS42 KMHX 102300 RRA
TAFOAJ
TAF
KOAJ 102356Z 1100/1124 VRB04KT P6SM VCTS SCT015 BKN050CB
     FM110500 20004KT 4SM BR VCSH BKN040 OVC200
     FM111200 21006KT P6SM VCSH BKN040
      AMD LTD TO CLD VIS AND WIND=

USA.gov is the U.S. government's official web portal to all federal, state and local government web resources and services.